Time;durP1;ratioP1;P1;durP2;ratioP2;P2;SDS_P1;SDS_P2;PMS_P1;PMS_P2;Temp;Humidity;BMP_temperature;BMP_pressure;BME280_temperature;BME280_humidity;BME280_pressure;Samples;Min_cycle;Max_cycle;Signal;HPM_P1;HPM_P2
2021/09/04 00:00:16;;;;;;;3.22;1.50;;;;;;;8.45;65.92;98289.66;5135252;27;20046;-74
2021/09/04 00:02:41;;;;;;;2.40;1.58;;;;;;;8.50;66.01;98298.88;5134915;27;20050;-75
2021/09/04 00:05:08;;;;;;;4.40;1.45;;;;;;;8.63;65.77;98292.47;5135456;27;20058;-77
2021/09/04 00:07:33;;;;;;;6.95;2.65;;;;;;;8.57;65.97;98302.59;5134246;27;20050;-78
2021/09/04 00:10:01;;;;;;;5.20;1.67;;;;;;;8.47;65.75;98300.94;5134753;27;20073;-78
2021/09/04 00:12:28;;;;;;;8.07;1.77;;;;;;;8.48;65.90;98303.44;5135430;27;20043;-78
2021/09/04 00:14:56;;;;;;;3.35;1.58;;;;;;;8.43;66.03;98305.63;5135034;27;20081;-77
2021/09/04 00:17:21;;;;;;;5.97;2.03;;;;;;;8.45;65.76;98305.47;5135157;27;20069;-76
2021/09/04 00:19:47;;;;;;;3.08;1.60;;;;;;;8.49;66.20;98310.38;5134622;27;20416;-77
2021/09/04 00:22:13;;;;;;;7.55;1.90;;;;;;;8.43;65.74;98314.34;5135064;27;20089;-77
2021/09/04 00:24:39;;;;;;;3.85;1.42;;;;;;;8.46;65.87;98318.56;5134745;27;20038;-79
2021/09/04 00:27:08;;;;;;;6.47;1.80;;;;;;;8.47;65.78;98314.13;5134246;27;20082;-75
2021/09/04 00:29:34;;;;;;;4.63;2.00;;;;;;;8.50;65.86;98317.31;5134434;27;20043;-79
2021/09/04 00:32:01;;;;;;;2.35;1.95;;;;;;;8.45;65.65;98319.50;5134530;27;20039;-78
2021/09/04 00:34:26;;;;;;;4.20;1.90;;;;;;;8.52;65.64;98331.19;5134062;27;20050;-75
2021/09/04 00:36:52;;;;;;;3.22;1.70;;;;;;;8.45;65.70;98327.41;5132491;27;20035;-75
2021/09/04 00:39:18;;;;;;;3.50;2.00;;;;;;;8.41;66.11;98320.72;5134576;27;20108;-76
2021/09/04 00:41:44;;;;;;;5.57;2.20;;;;;;;8.38;66.26;98326.28;5133825;27;20140;-75
2021/09/04 00:44:15;;;;;;;5.03;1.90;;;;;;;8.38;65.96;98326.28;5134481;27;20097;-76
2021/09/04 00:46:41;;;;;;;4.85;2.03;;;;;;;8.36;65.85;98333.47;5132716;27;20240;-77
2021/09/04 00:49:07;;;;;;;5.30;1.90;;;;;;;8.50;65.71;98342.81;5134251;27;20042;-76
2021/09/04 00:51:33;;;;;;;4.05;2.10;;;;;;;8.48;65.37;98332.41;5133978;27;20043;-73
2021/09/04 00:53:58;;;;;;;3.38;2.08;;;;;;;8.46;65.89;98339.63;5132572;27;20095;-77
2021/09/04 00:56:24;;;;;;;3.33;2.03;;;;;;;8.48;65.86;98337.69;5132657;27;20077;-76
2021/09/04 00:58:50;;;;;;;6.25;2.67;;;;;;;8.49;65.22;98335.91;5132356;27;20134;-75
2021/09/04 01:01:16;;;;;;;5.25;2.22;;;;;;;8.50;65.37;98343.66;5134025;27;20054;-76
2021/09/04 01:03:44;;;;;;;9.05;2.20;;;;;;;8.47;64.75;98354.44;5134000;27;20122;-74
2021/09/04 01:06:13;;;;;;;5.20;2.10;;;;;;;8.40;64.90;98350.69;5131639;27;20054;-74
2021/09/04 01:08:40;;;;;;;3.92;1.60;;;;;;;8.39;64.88;98346.41;5133918;27;20051;-77
2021/09/04 01:11:08;;;;;;;6.88;2.28;;;;;;;8.31;65.42;98359.41;5133196;27;20039;-75
2021/09/04 01:13:34;;;;;;;5.03;2.10;;;;;;;8.28;65.59;98357.06;5133707;27;20099;-76
2021/09/04 01:16:00;;;;;;;3.92;2.10;;;;;;;8.30;65.23;98355.09;5133395;27;20499;-76
2021/09/04 01:18:26;;;;;;;4.05;1.90;;;;;;;8.33;64.89;98357.47;5132393;27;20042;-81
2021/09/04 01:20:52;;;;;;;4.97;2.63;;;;;;;8.35;65.16;98364.28;5133705;27;20598;-80
2021/09/04 01:23:17;;;;;;;3.97;1.83;;;;;;;8.38;64.70;98368.44;5133984;27;20047;-81
2021/09/04 01:25:44;;;;;;;4.63;1.92;;;;;;;8.34;64.80;98356.50;5133139;27;20126;-76
2021/09/04 01:28:11;;;;;;;7.45;2.25;;;;;;;8.31;64.75;98367.31;5133246;27;20404;-75
2021/09/04 01:30:36;;;;;;;4.57;2.28;;;;;;;8.25;65.03;98366.06;5133307;27;20054;-77
2021/09/04 01:33:02;;;;;;;4.10;1.83;;;;;;;8.34;65.06;98364.41;5133202;27;20050;-76
2021/09/04 01:35:28;;;;;;;4.32;2.17;;;;;;;8.30;64.92;98363.00;5133147;27;20039;-76
2021/09/04 01:37:54;;;;;;;3.75;2.17;;;;;;;8.24;65.59;98367.03;5130207;27;20039;-75
2021/09/04 01:40:20;;;;;;;3.97;2.25;;;;;;;8.24;65.59;98361.75;5132895;27;20046;-76
2021/09/04 01:42:48;;;;;;;3.95;2.10;;;;;;;8.27;65.39;98366.75;5133103;27;20388;-75
2021/09/04 01:45:14;;;;;;;3.38;2.00;;;;;;;8.23;65.12;98360.91;5132524;27;20051;-76
2021/09/04 01:47:40;;;;;;;6.60;2.20;;;;;;;8.13;65.21;98369.78;5132651;27;20070;-78
2021/09/04 01:50:09;;;;;;;4.25;2.10;;;;;;;8.17;65.24;98366.72;5131903;27;20039;-76
2021/09/04 01:52:39;;;;;;;3.60;2.03;;;;;;;8.13;65.61;98373.25;5131675;27;20067;-76
2021/09/04 01:55:06;;;;;;;6.40;2.17;;;;;;;8.18;65.65;98372.84;5131316;27;20088;-77
2021/09/04 01:57:32;;;;;;;4.82;2.28;;;;;;;8.17;65.62;98377.25;5133266;27;20098;-74
2021/09/04 01:59:59;;;;;;;5.05;1.85;;;;;;;8.08;65.53;98380.72;5132778;27;20054;-78
2021/09/04 02:02:24;;;;;;;3.25;1.90;;;;;;;8.10;65.46;98381.44;5127080;27;20043;-76
2021/09/04 02:04:50;;;;;;;10.88;2.33;;;;;;;8.04;65.49;98376.69;5132031;27;20068;-76
2021/09/04 02:07:16;;;;;;;5.80;2.20;;;;;;;8.11;65.27;98385.69;5131696;27;20038;-77
2021/09/04 02:09:42;;;;;;;4.28;2.00;;;;;;;8.08;65.41;98393.88;5132566;27;20038;-76
2021/09/04 02:12:07;;;;;;;5.30;2.30;;;;;;;8.00;65.15;98383.19;5131928;27;20039;-76
2021/09/04 02:14:33;;;;;;;4.82;2.10;;;;;;;7.96;65.74;98384.41;5132588;27;20453;-75
2021/09/04 02:16:59;;;;;;;5.63;2.40;;;;;;;7.98;65.57;98382.50;5132328;27;20585;-74
2021/09/04 02:19:26;;;;;;;3.83;2.28;;;;;;;7.95;65.10;98388.88;5132651;27;20130;-77
2021/09/04 02:21:53;;;;;;;3.92;2.22;;;;;;;7.94;65.43;98397.72;5132499;27;20043;-76
2021/09/04 02:24:19;;;;;;;3.63;2.00;;;;;;;7.93;65.68;98394.25;5132346;27;20043;-77
2021/09/04 02:26:45;;;;;;;3.55;2.00;;;;;;;7.97;65.05;98391.34;5132335;27;20055;-76
2021/09/04 02:29:11;;;;;;;8.35;2.25;;;;;;;7.97;65.32;98396.63;5132173;27;20466;-77
2021/09/04 02:31:37;;;;;;;4.35;2.40;;;;;;;8.02;64.99;98394.41;5132507;27;20049;-76
2021/09/04 02:34:04;;;;;;;4.07;2.17;;;;;;;7.99;65.46;98399.94;5132131;27;20070;-76
2021/09/04 02:36:30;;;;;;;3.40;2.20;;;;;;;7.95;64.79;98407.28;5131152;27;20087;-76
2021/09/04 02:38:56;;;;;;;5.45;2.42;;;;;;;7.93;65.30;98401.31;5130453;27;20519;-77
2021/09/04 02:41:22;;;;;;;4.25;2.10;;;;;;;7.94;65.52;98408.25;5132254;27;20039;-75
2021/09/04 02:43:48;;;;;;;4.88;1.90;;;;;;;8.05;65.16;98404.66;5132279;28;20046;-78
2021/09/04 02:46:15;;;;;;;4.28;2.40;;;;;;;8.02;65.14;98404.94;5132391;27;20036;-75
2021/09/04 02:48:43;;;;;;;3.45;1.92;;;;;;;8.07;65.22;98408.00;5132117;27;20525;-76
2021/09/04 02:51:09;;;;;;;5.35;3.00;;;;;;;7.93;64.72;98412.66;5131490;27;20141;-74
2021/09/04 02:53:35;;;;;;;7.93;3.28;;;;;;;7.93;64.84;98417.94;5132115;28;20092;-77
2021/09/04 02:56:01;;;;;;;7.18;3.17;;;;;;;8.04;64.79;98418.81;5132250;27;20031;-78
2021/09/04 02:58:30;;;;;;;6.00;3.28;;;;;;;8.03;64.93;98422.41;5132255;27;20039;-74
2021/09/04 03:00:55;;;;;;;8.30;3.60;;;;;;;7.97;64.66;98422.94;5132213;27;20057;-75
2021/09/04 03:03:22;;;;;;;4.88;2.50;;;;;;;7.96;64.20;98424.72;5132300;27;20092;-75
2021/09/04 03:05:48;;;;;;;6.60;3.08;;;;;;;7.96;65.09;98426.53;5134752;27;20043;-74
2021/09/04 03:08:14;;;;;;;5.43;3.10;;;;;;;7.98;64.89;98425.44;5135970;27;20568;-75
2021/09/04 03:10:41;;;;;;;5.15;2.60;;;;;;;8.06;64.54;98416.88;5135934;27;20088;-74
2021/09/04 03:13:08;;;;;;;5.67;2.97;;;;;;;7.99;64.52;98431.53;5135978;27;20125;-76
2021/09/04 03:15:35;;;;;;;4.97;3.13;;;;;;;8.05;63.96;98431.00;5135905;27;20368;-74
2021/09/04 03:18:02;;;;;;;5.47;3.00;;;;;;;7.97;64.03;98441.38;5135735;27;20051;-77
2021/09/04 03:20:28;;;;;;;6.55;2.67;;;;;;;7.93;64.11;98439.00;5135664;27;20043;-76
2021/09/04 03:22:55;;;;;;;5.47;2.85;;;;;;;7.88;64.08;98435.94;5135620;27;20470;-76
2021/09/04 03:25:22;;;;;;;7.63;2.78;;;;;;;7.80;64.15;98448.94;5135735;27;20039;-74
2021/09/04 03:27:48;;;;;;;4.75;2.83;;;;;;;7.82;64.58;98449.63;5135866;27;20581;-77
2021/09/04 03:30:14;;;;;;;8.85;2.88;;;;;;;7.92;64.41;98454.94;5135336;27;20043;-79
2021/09/04 03:32:41;;;;;;;5.38;2.88;;;;;;;7.96;64.41;98463.41;5135781;27;20043;-78
2021/09/04 03:35:07;;;;;;;7.20;2.80;;;;;;;7.98;63.77;98461.47;5134730;27;20509;-74
2021/09/04 03:37:34;;;;;;;5.40;3.08;;;;;;;7.99;64.15;98463.13;5134876;27;20039;-75
2021/09/04 03:39:59;;;;;;;8.20;3.53;;;;;;;7.98;64.23;98475.47;5134117;27;20046;-74
2021/09/04 03:42:25;;;;;;;8.85;3.08;;;;;;;8.02;64.39;98465.50;5111715;27;20070;-75
2021/09/04 03:44:51;;;;;;;5.03;2.53;;;;;;;8.08;64.63;98462.34;5114166;27;20044;-75
2021/09/04 03:47:17;;;;;;;8.82;3.15;;;;;;;8.13;65.08;98475.13;5128768;27;20039;-77
2021/09/04 03:49:43;;;;;;;6.85;3.10;;;;;;;8.22;64.33;98475.16;5135223;27;20073;-77
2021/09/04 03:52:10;;;;;;;5.95;2.75;;;;;;;8.18;64.91;98468.47;5135332;27;20519;-77
2021/09/04 03:54:37;;;;;;;4.97;2.70;;;;;;;8.24;64.34;98470.56;5134045;27;20049;-76
2021/09/04 03:57:04;;;;;;;7.57;2.38;;;;;;;8.23;64.26;98471.53;5135159;27;20088;-75
2021/09/04 03:59:30;;;;;;;7.55;2.78;;;;;;;8.20;64.13;98477.09;5135315;27;20533;-76
2021/09/04 04:01:57;;;;;;;5.38;2.95;;;;;;;8.22;64.19;98480.44;5134428;27;20043;-75
2021/09/04 04:04:25;;;;;;;8.13;3.45;;;;;;;8.22;63.66;98488.34;5135528;27;20039;-78
2021/09/04 04:06:51;;;;;;;6.35;3.30;;;;;;;8.17;64.11;98484.41;5133608;27;20471;-77
2021/09/04 04:09:17;;;;;;;5.80;3.05;;;;;;;8.11;64.44;98491.03;5134610;27;20131;-75
2021/09/04 04:11:43;;;;;;;9.73;3.00;;;;;;;8.17;64.27;98495.78;5134941;27;20039;-78
2021/09/04 04:14:10;;;;;;;5.90;2.83;;;;;;;8.31;63.95;98494.59;5135338;27;20035;-76
2021/09/04 04:16:37;;;;;;;7.20;3.22;;;;;;;8.41;64.23;98494.59;5132623;27;20581;-78
2021/09/04 04:19:03;;;;;;;7.15;3.00;;;;;;;8.49;63.63;98502.72;5133301;27;20046;-75
2021/09/04 04:21:29;;;;;;;6.00;2.97;;;;;;;8.39;64.25;98504.47;5134994;27;20047;-78
2021/09/04 04:23:55;;;;;;;5.93;2.97;;;;;;;8.36;64.31;98510.84;5134656;27;20046;-77
2021/09/04 04:26:22;;;;;;;5.70;2.78;;;;;;;8.29;65.34;98511.47;5134813;27;20480;-75
2021/09/04 04:28:48;;;;;;;4.65;2.63;;;;;;;8.34;65.17;98518.03;5134787;27;20051;-75
2021/09/04 04:31:13;;;;;;;4.90;2.55;;;;;;;8.25;65.75;98518.84;5135449;27;20050;-75
2021/09/04 04:33:41;;;;;;;6.60;2.70;;;;;;;8.20;66.95;98519.22;5134108;27;20147;-78
2021/09/04 04:36:08;;;;;;;8.13;2.83;;;;;;;8.20;67.87;98524.50;5131696;27;20053;-77
2021/09/04 04:38:35;;;;;;;13.90;7.38;;;;;;;8.24;67.67;98520.63;5134304;27;20050;-79
2021/09/04 04:41:03;;;;;;;6.28;3.20;;;;;;;8.18;68.44;98529.06;5133830;27;20058;-75
2021/09/04 04:43:30;;;;;;;4.78;2.50;;;;;;;8.18;68.92;98531.69;5134135;27;20095;-74
2021/09/04 04:45:57;;;;;;;8.10;3.10;;;;;;;8.09;69.67;98527.22;5133916;27;20617;-77
2021/09/04 04:48:24;;;;;;;5.88;2.55;;;;;;;8.01;69.46;98532.28;5134118;27;20518;-78
2021/09/04 04:50:50;;;;;;;5.32;2.72;;;;;;;8.03;69.94;98539.09;5133509;27;20040;-80
2021/09/04 04:53:17;;;;;;;9.63;3.80;;;;;;;8.10;69.19;98534.16;5133916;27;20588;-78
2021/09/04 04:55:44;;;;;;;8.45;4.40;;;;;;;7.99;70.13;98542.97;5134740;27;20050;-79
2021/09/04 04:58:10;;;;;;;5.90;3.08;;;;;;;8.00;69.97;98544.63;5134002;27;20047;-77
2021/09/04 05:00:36;;;;;;;7.93;3.45;;;;;;;8.05;70.01;98547.72;5134481;27;20062;-81
2021/09/04 05:03:03;;;;;;;7.70;3.35;;;;;;;8.30;68.72;98544.75;5127954;27;20084;-79
2021/09/04 05:05:29;;;;;;;8.80;2.90;;;;;;;8.49;68.52;98554.59;5131373;27;20050;-79
2021/09/04 05:07:55;;;;;;;7.85;2.97;;;;;;;8.67;68.17;98553.00;5132219;27;20035;-79
2021/09/04 05:10:21;;;;;;;5.05;2.35;;;;;;;8.85;67.47;98555.81;5133170;27;20046;-80
2021/09/04 05:12:48;;;;;;;5.40;2.50;;;;;;;8.97;66.41;98553.06;5132683;27;20039;-75
2021/09/04 05:15:14;;;;;;;8.02;2.70;;;;;;;8.83;67.38;98557.75;5132683;27;20479;-85
2021/09/04 05:17:42;;;;;;;5.28;2.85;;;;;;;8.95;67.37;98557.63;5105819;27;20122;-78
2021/09/04 05:20:10;;;;;;;7.90;4.10;;;;;;;9.05;67.33;98548.75;5130551;27;20069;-79
2021/09/04 05:22:36;;;;;;;7.07;2.70;;;;;;;9.05;66.75;98551.41;5131522;27;20134;-77
2021/09/04 05:25:03;;;;;;;3.78;2.50;;;;;;;9.15;65.88;98556.69;5132817;27;20405;-79
2021/09/04 05:27:29;;;;;;;8.65;4.32;;;;;;;9.34;65.35;98566.41;5132252;27;20081;-78
2021/09/04 05:29:55;;;;;;;4.93;2.30;;;;;;;9.39;65.25;98573.94;5132819;27;20055;-79
2021/09/04 05:32:24;;;;;;;5.32;2.58;;;;;;;9.58;65.20;98564.34;5133041;27;20031;-84
2021/09/04 05:34:51;;;;;;;4.80;2.53;;;;;;;9.70;64.52;98565.88;5113898;27;20045;-84
2021/09/04 05:38:54;;;;;;;4.35;2.20;;;;;;;9.84;65.49;98575.16;5183054;27;20227;-77
2021/09/04 05:41:19;;;;;;;4.10;2.35;;;;;;;9.91;64.82;98570.16;5142866;27;20121;-82
2021/09/04 05:43:45;;;;;;;4.50;2.78;;;;;;;9.98;64.10;98576.53;5152046;27;20121;-77
2021/09/04 05:46:11;;;;;;;11.68;8.15;;;;;;;10.49;63.46;98577.97;5150732;27;20038;-76
2021/09/04 05:48:37;;;;;;;6.00;2.05;;;;;;;10.41;62.14;98575.19;5169640;27;20073;-77
2021/09/04 05:51:03;;;;;;;4.80;2.10;;;;;;;10.12;62.41;98585.81;5164784;27;20038;-75
2021/09/04 05:53:29;;;;;;;4.68;2.65;;;;;;;10.64;61.15;98590.69;5167795;27;20049;-76
2021/09/04 05:55:56;;;;;;;15.20;3.25;;;;;;;11.11;60.19;98577.34;5167813;27;20030;-76
2021/09/04 05:58:24;;;;;;;6.45;3.90;;;;;;;11.04;60.51;98586.88;5168995;27;20043;-79
2021/09/04 06:00:53;;;;;;;3.78;2.00;;;;;;;11.27;60.41;98587.28;5169328;27;20077;-80
2021/09/04 06:03:19;;;;;;;9.18;2.55;;;;;;;12.14;57.87;98590.19;5168481;27;20038;-81
2021/09/04 06:05:45;;;;;;;5.28;1.90;;;;;;;12.83;56.41;98583.28;5168535;27;20042;-80
2021/09/04 06:08:11;;;;;;;5.20;2.35;;;;;;;14.75;53.55;98592.00;5168999;27;20038;-78
2021/09/04 06:10:38;;;;;;;3.00;2.00;;;;;;;14.13;52.28;98588.09;5169312;27;20101;-81
2021/09/04 06:13:03;;;;;;;6.35;1.70;;;;;;;13.39;53.16;98599.56;5147724;27;20047;-80
2021/09/04 06:15:29;;;;;;;4.32;2.17;;;;;;;13.15;53.40;98585.19;5159360;27;20540;-79
2021/09/04 06:17:55;;;;;;;6.13;4.13;;;;;;;13.41;53.38;98586.94;5124488;27;20451;-81
2021/09/04 06:20:21;;;;;;;4.55;2.47;;;;;;;13.50;52.29;98585.97;5141683;27;20042;-83
2021/09/04 06:22:47;;;;;;;6.32;2.03;;;;;;;13.89;51.51;98589.78;5134887;27;20042;-81
2021/09/04 06:25:12;;;;;;;3.80;2.00;;;;;;;14.09;50.65;98590.28;5117698;27;20034;-75
2021/09/04 06:27:38;;;;;;;3.22;1.77;;;;;;;13.97;50.57;98592.47;5171047;27;20038;-78
2021/09/04 06:30:05;;;;;;;5.35;1.70;;;;;;;13.57;50.08;98583.47;5152564;27;20043;-78
2021/09/04 06:32:31;;;;;;;3.37;1.77;;;;;;;13.00;51.60;98590.28;5170317;27;20087;-76
2021/09/04 06:34:57;;;;;;;5.13;2.13;;;;;;;12.49;52.95;98590.25;5158499;27;20082;-80
2021/09/04 06:37:24;;;;;;;13.43;4.95;;;;;;;12.34;54.45;98592.66;5130963;27;20055;-79
2021/09/04 06:39:53;;;;;;;2.90;1.63;;;;;;;11.90;56.15;98609.38;5149090;27;20047;-79
2021/09/04 06:42:18;;;;;;;10.43;4.07;;;;;;;11.49;57.88;98606.38;5135193;27;20044;-79
2021/09/04 06:44:44;;;;;;;6.43;3.17;;;;;;;11.23;58.94;98612.41;5135542;27;20042;-79
2021/09/04 06:47:10;;;;;;;4.40;1.48;;;;;;;10.98;59.13;98613.94;5149566;27;20068;-79
2021/09/04 06:49:36;;;;;;;6.13;1.20;;;;;;;11.01;60.05;98605.69;5120876;27;20140;-77
2021/09/04 06:52:02;;;;;;;3.97;2.00;;;;;;;11.14;59.64;98619.41;5116773;27;20488;-78
2021/09/04 06:54:28;;;;;;;3.95;1.80;;;;;;;10.94;59.90;98617.84;5135918;27;20045;-80
2021/09/04 06:56:54;;;;;;;7.40;4.78;;;;;;;11.19;60.65;98611.03;5135807;27;20039;-79
2021/09/04 06:59:20;;;;;;;7.88;2.72;;;;;;;12.25;59.80;98609.47;5136028;27;20101;-78
2021/09/04 07:01:46;;;;;;;5.68;2.83;;;;;;;12.90;56.11;98609.00;5084222;27;20479;-78
2021/09/04 07:04:12;;;;;;;4.20;1.85;;;;;;;12.63;55.70;98610.03;5134366;27;20047;-79
2021/09/04 07:06:38;;;;;;;4.00;2.10;;;;;;;12.61;56.15;98612.00;5136233;27;20510;-77
2021/09/04 07:09:04;;;;;;;5.72;1.90;;;;;;;12.56;54.92;98616.97;5136025;27;20131;-80
2021/09/04 07:11:30;;;;;;;7.30;2.42;;;;;;;12.06;55.09;98623.75;5135286;27;20063;-78
2021/09/04 07:13:56;;;;;;;5.25;2.22;;;;;;;11.60;56.19;98615.88;5137531;27;20046;-80
2021/09/04 07:16:22;;;;;;;6.75;2.67;;;;;;;11.31;57.10;98619.59;5136762;27;20071;-82
2021/09/04 07:18:48;;;;;;;5.95;2.00;;;;;;;10.90;56.78;98627.06;5121499;27;20640;-81
2021/09/04 07:21:14;;;;;;;7.53;2.40;;;;;;;10.99;57.75;98632.31;5104091;27;20069;-84
2021/09/04 07:23:40;;;;;;;13.20;2.55;;;;;;;11.56;55.82;98627.78;5121386;27;20043;-79
2021/09/04 07:26:06;;;;;;;7.18;5.00;;;;;;;13.84;53.28;98624.84;5118689;27;20051;-81
2021/09/04 07:28:32;;;;;;;6.72;2.85;;;;;;;16.64;45.92;98617.28;5138685;27;20133;-83
2021/09/04 07:30:59;;;;;;;4.95;3.45;;;;;;;18.35;41.59;98620.59;5102716;27;20147;-81
2021/09/04 07:33:28;;;;;;;5.13;2.47;;;;;;;19.80;38.72;98620.63;5140765;27;20042;-81
2021/09/04 07:35:54;;;;;;;4.55;2.22;;;;;;;20.55;35.82;98618.75;5099005;27;20180;-82
2021/09/04 07:38:20;;;;;;;4.35;2.63;;;;;;;20.72;36.35;98621.88;5096182;28;20043;-79
2021/09/04 07:40:48;;;;;;;5.40;2.08;;;;;;;21.85;33.57;98619.72;5108356;28;20396;-83
2021/09/04 07:43:14;;;;;;;4.78;2.00;;;;;;;23.21;32.43;98621.75;5078991;28;20044;-82
2021/09/04 07:45:40;;;;;;;4.15;2.92;;;;;;;24.70;30.09;98612.00;5098191;28;20035;-82
2021/09/04 07:48:07;;;;;;;4.05;2.35;;;;;;;25.53;27.75;98605.53;5096650;28;20427;-86
2021/09/04 07:50:34;;;;;;;4.47;2.20;;;;;;;25.56;25.95;98607.78;5079116;28;20051;-81
2021/09/04 07:53:00;;;;;;;2.42;1.83;;;;;;;25.39;26.87;98617.75;5113715;28;20055;-82
2021/09/04 07:55:26;;;;;;;6.32;2.60;;;;;;;26.11;27.07;98610.91;5090704;27;20038;-83
2021/09/04 07:57:58;;;;;;;6.13;3.03;;;;;;;26.02;25.91;98609.63;5128012;27;20047;-89
2021/09/04 08:00:26;;;;;;;7.18;3.50;;;;;;;26.45;24.67;98614.38;5087072;28;20496;-87
2021/09/04 08:02:53;;;;;;;4.07;2.55;;;;;;;26.86;25.18;98619.59;5070974;28;20044;-87
2021/09/04 08:08:46;;;;;;;7.15;4.18;;;;;;;27.38;24.53;98621.03;5088663;28;20055;-88
2021/09/04 08:11:13;;;;;;;8.35;4.30;;;;;;;27.93;23.92;98621.03;5060560;28;20127;-83
2021/09/04 08:13:38;;;;;;;9.63;4.72;;;;;;;28.87;22.46;98618.75;5028206;28;20459;-83
2021/09/04 08:16:04;;;;;;;4.88;3.10;;;;;;;29.30;21.79;98604.22;5060189;28;20042;-85
2021/09/04 08:18:32;;;;;;;5.57;2.40;;;;;;;28.98;21.83;98607.91;5040404;28;20040;-84
2021/09/04 08:21:00;;;;;;;7.10;3.47;;;;;;;26.37;24.58;98616.69;5023498;28;20682;-84
2021/09/04 08:23:31;;;;;;;9.35;5.60;;;;;;;25.43;24.27;98613.47;5022692;28;20048;-85
2021/09/04 08:26:51;;;;;;;4.75;2.58;;;;;;;22.10;28.15;98628.63;5026638;28;20136;-84
2021/09/04 08:29:17;;;;;;;13.52;6.40;;;;;;;20.29;31.14;98629.34;5048980;28;20049;-82
2021/09/04 08:31:47;;;;;;;15.80;9.40;;;;;;;18.90;33.92;98637.66;5007842;28;20069;-84
2021/09/04 08:34:20;;;;;;;14.65;6.40;;;;;;;18.18;35.38;98642.28;5009279;28;20040;-88
2021/09/04 08:36:48;;;;;;;13.63;7.85;;;;;;;17.44;36.67;98646.06;5057109;28;20128;-86
2021/09/04 08:39:14;;;;;;;;;;;;;;;17.05;37.71;98644.56;5018252;28;20106;-81
2021/09/04 08:41:40;;;;;;;4.93;2.33;;;;;;;17.84;36.70;98649.13;5022967;28;19917;-82
2021/09/04 08:44:07;;;;;;;6.75;3.13;;;;;;;18.72;34.70;98650.72;5021280;28;20056;-82
2021/09/04 08:46:35;;;;;;;5.03;2.35;;;;;;;20.03;33.23;98652.44;5002341;28;20045;-83
2021/09/04 08:49:02;;;;;;;;;;;;;;;20.66;30.89;98636.91;5031228;28;20037;-82
2021/09/04 08:51:28;;;;;;;5.90;2.75;;;;;;;22.34;29.29;98634.22;5053807;28;19919;-83
2021/09/04 08:53:54;;;;;;;3.65;2.33;;;;;;;22.75;27.54;98638.25;5093681;28;20040;-86
2021/09/04 08:56:20;;;;;;;11.23;5.80;;;;;;;24.34;26.20;98638.19;5061695;28;20068;-83
2021/09/04 08:58:51;;;;;;;6.75;4.32;;;;;;;24.95;25.29;98629.00;5060350;28;20573;-83
2021/09/04 09:01:20;;;;;;;7.43;4.68;;;;;;;25.68;24.92;98632.06;5094051;28;20522;-85
2021/09/04 09:03:46;;;;;;;8.90;4.10;;;;;;;24.57;25.19;98644.66;5070501;28;20050;-84
2021/09/04 09:06:23;;;;;;;10.75;3.65;;;;;;;24.13;26.16;98655.78;5077518;28;20035;-83
2021/09/04 09:08:51;;;;;;;12.40;4.15;;;;;;;24.18;26.34;98649.69;5093082;28;20050;-80
2021/09/04 09:11:17;;;;;;;9.20;4.07;;;;;;;23.81;25.87;98642.53;5092955;28;20044;-79
2021/09/04 09:13:48;;;;;;;10.57;3.70;;;;;;;23.96;25.30;98639.41;5095390;28;20044;-82
2021/09/04 09:16:15;;;;;;;9.80;4.75;;;;;;;24.17;24.42;98639.94;5093419;28;20051;-79
2021/09/04 09:18:41;;;;;;;7.93;2.95;;;;;;;25.12;23.80;98639.91;5091715;28;20071;-77
2021/09/04 09:21:08;;;;;;;11.32;2.95;;;;;;;26.75;22.59;98639.53;5086912;28;20085;-82
2021/09/04 09:23:33;;;;;;;4.70;2.15;;;;;;;25.40;23.01;98647.28;5092652;28;20044;-79
2021/09/04 09:26:10;;;;;;;12.18;2.25;;;;;;;23.55;24.80;98649.13;5075189;28;20055;-84
2021/09/04 09:28:37;;;;;;;3.07;1.50;;;;;;;21.94;26.62;98653.41;5091440;28;20044;-81
2021/09/04 09:31:03;;;;;;;7.82;1.52;;;;;;;20.14;29.23;98666.31;5091078;28;20040;-78
2021/09/04 09:33:31;;;;;;;4.65;2.10;;;;;;;19.61;32.96;98669.69;5089632;28;20123;-81
2021/09/04 09:36:00;;;;;;;;;;;;;;;19.30;33.78;98676.38;5090942;28;20044;-82
2021/09/04 09:38:27;;;;;;;12.30;3.60;;;;;;;21.48;33.54;98669.59;5093184;28;19919;-81
2021/09/04 09:40:54;;;;;;;20.88;8.88;;;;;;;23.81;30.60;98663.31;5100928;28;20043;-81
2021/09/04 09:43:35;;;;;;;10.50;4.75;;;;;;;22.89;30.12;98659.63;5063352;28;20588;-80
2021/09/04 09:46:07;;;;;;;17.90;8.27;;;;;;;19.95;34.34;98673.28;5113775;28;20040;-80
2021/09/04 09:48:35;;;;;;;7.10;2.58;;;;;;;18.29;37.03;98675.72;5115613;28;20059;-81
2021/09/04 09:51:05;;;;;;;5.18;1.90;;;;;;;17.30;40.56;98691.34;5115329;28;20555;-79
2021/09/04 09:53:30;;;;;;;3.17;1.63;;;;;;;16.43;42.50;98694.56;5114395;28;20048;-80
2021/09/04 09:55:58;;;;;;;5.13;1.90;;;;;;;15.65;44.91;98713.25;5132627;28;20035;-79
2021/09/04 09:58:25;;;;;;;;;;;;;;;14.62;48.33;98705.09;5102308;27;20039;-79
2021/09/04 10:00:54;;;;;;;7.57;1.70;;;;;;;14.03;49.73;98707.91;5127934;28;19915;-77
2021/09/04 10:03:21;;;;;;;4.32;1.40;;;;;;;13.68;51.65;98701.88;5126095;28;20047;-82
2021/09/04 10:05:47;;;;;;;2.63;1.20;;;;;;;13.88;51.48;98707.72;5096266;28;20053;-79
2021/09/04 10:08:15;;;;;;;3.20;1.70;;;;;;;16.11;51.44;98701.84;5113352;28;20647;-80
2021/09/04 10:10:42;;;;;;;;;;;;;;;17.41;46.94;98692.72;5113868;28;20077;-81
2021/09/04 10:13:08;;;;;;;4.20;2.17;;;;;;;18.48;42.97;98695.66;5132087;28;20330;-77
2021/09/04 10:15:35;;;;;;;8.95;7.70;;;;;;;19.15;42.54;98689.91;5080275;27;20053;-81
2021/09/04 10:18:06;;;;;;;4.72;1.95;;;;;;;19.72;39.97;98693.25;5112309;28;20042;-78
2021/09/04 10:20:33;;;;;;;9.98;4.57;;;;;;;20.47;38.80;98698.56;5111952;28;20046;-80
2021/09/04 10:23:23;;;;;;;25.35;19.98;;;;;;;20.17;39.88;98706.97;5129558;27;20045;-80
2021/09/04 10:25:49;;;;;;;9.07;4.28;;;;;;;19.64;40.44;98704.16;5087344;27;20448;-79
2021/09/04 10:28:16;;;;;;;12.65;4.47;;;;;;;18.79;41.11;98715.88;5115495;27;20149;-79
2021/09/04 10:30:45;;;;;;;4.78;1.90;;;;;;;17.44;42.21;98707.53;5115384;27;20035;-82
2021/09/04 10:33:18;;;;;;;4.20;2.38;;;;;;;16.27;45.45;98707.03;5133799;27;20058;-76
2021/09/04 10:35:52;;;;;;;7.80;2.80;;;;;;;15.71;47.38;98722.41;5134393;27;20050;-80
2021/09/04 10:38:17;;;;;;;7.72;2.58;;;;;;;15.70;47.85;98721.56;5113101;28;20055;-82
2021/09/04 10:40:45;;;;;;;6.50;2.90;;;;;;;16.62;46.20;98722.59;5112354;28;20495;-79
2021/09/04 10:43:11;;;;;;;4.60;2.43;;;;;;;17.18;44.67;98716.88;5112502;28;20114;-80
2021/09/04 10:45:37;;;;;;;11.88;3.53;;;;;;;18.03;43.15;98711.09;5092689;28;20651;-81
2021/09/04 10:48:14;;;;;;;8.48;3.10;;;;;;;18.74;42.23;98718.28;5111673;28;20036;-79
2021/09/04 10:50:41;;;;;;;5.40;2.78;;;;;;;19.10;39.88;98717.31;5111703;28;20653;-75
2021/09/04 10:53:07;;;;;;;11.43;4.50;;;;;;;19.33;39.87;98709.00;5113229;28;20063;-78
2021/09/04 10:55:40;;;;;;;7.10;3.60;;;;;;;19.60;39.42;98705.59;5115408;28;20104;-80
2021/09/04 10:58:09;;;;;;;7.70;3.10;;;;;;;20.04;38.49;98706.97;5113256;28;20044;-79
2021/09/04 11:00:55;;;;;;;5.22;2.88;;;;;;;19.90;36.10;98716.03;5113169;28;20511;-78
2021/09/04 11:03:22;;;;;;;605.88;554.38;;;;;;;19.12;36.74;98704.56;5109556;28;20047;-77
2021/09/04 11:06:05;;;;;;;5.30;2.95;;;;;;;18.59;39.43;98705.84;5112874;28;20032;-78
2021/09/04 11:08:30;;;;;;;5.75;2.95;;;;;;;17.89;38.77;98705.56;5110348;28;20049;-77
2021/09/04 11:11:16;;;;;;;9.02;6.72;;;;;;;17.50;39.45;98706.78;5114505;28;20044;-77
2021/09/04 11:13:49;;;;;;;52.42;18.67;;;;;;;17.18;40.80;98714.19;5113621;28;20047;-80
2021/09/04 11:16:27;;;;;;;3.85;2.63;;;;;;;16.61;40.35;98716.44;5114584;28;20072;-77
2021/09/04 11:18:53;;;;;;;3.75;1.90;;;;;;;16.28;40.19;98722.03;5113380;28;20048;-78
2021/09/04 11:21:19;;;;;;;3.78;2.92;;;;;;;15.73;41.21;98720.41;5113843;28;20054;-77
2021/09/04 11:23:44;;;;;;;30.83;27.77;;;;;;;15.38;41.37;98720.72;5113990;28;20062;-76
2021/09/04 11:26:10;;;;;;;7.63;2.92;;;;;;;16.03;41.47;98725.91;5114797;28;20528;-78
2021/09/04 11:28:36;;;;;;;4.95;2.42;;;;;;;16.51;41.08;98713.19;5114081;28;20507;-76
2021/09/04 11:31:04;;;;;;;5.35;1.98;;;;;;;16.39;39.32;98717.31;5113703;28;20585;-76
2021/09/04 11:33:30;;;;;;;3.92;1.50;;;;;;;15.95;40.00;98724.09;5112765;28;20084;-75
2021/09/04 11:35:56;;;;;;;6.05;4.18;;;;;;;15.53;41.26;98731.50;5113316;28;20499;-78
2021/09/04 11:38:25;;;;;;;3.28;1.50;;;;;;;15.18;41.99;98755.75;5112773;28;20135;-76
2021/09/04 11:40:52;;;;;;;2.97;0.85;;;;;;;14.23;44.83;98756.31;5112336;28;20491;-77